createdAt,value
2019-01-24T00:00:06.785Z,-1.50
2019-01-24T00:00:47.555Z,-1.50
2019-01-24T00:01:23.307Z,-1.46
2019-01-24T00:01:58.745Z,-1.45
2019-01-24T00:02:34.511Z,-1.42
2019-01-24T00:03:10.458Z,-1.42
2019-01-24T00:03:46.137Z,-1.42
2019-01-24T00:04:21.870Z,-1.41
2019-01-24T00:04:57.626Z,-1.38
2019-01-24T00:05:33.102Z,-1.36
2019-01-24T00:06:09.192Z,-1.31
2019-01-24T00:06:44.656Z,-1.36
2019-01-24T00:07:20.097Z,-1.32
2019-01-24T00:07:55.880Z,-1.43
2019-01-24T00:08:31.621Z,-1.43
2019-01-24T00:09:09.238Z,-1.39
2019-01-24T00:09:45.002Z,-1.40
2019-01-24T00:10:20.988Z,-1.35
2019-01-24T00:10:56.458Z,-1.35
2019-01-24T00:11:31.880Z,-1.41
2019-01-24T00:12:07.697Z,-1.45
2019-01-24T00:12:43.180Z,-1.45
2019-01-24T00:13:18.660Z,-1.39
2019-01-24T00:13:54.151Z,-1.44
2019-01-24T00:14:29.926Z,-1.45
2019-01-24T00:15:07.037Z,-1.47
2019-01-24T00:15:42.813Z,-1.43
2019-01-24T00:16:18.883Z,-1.41
2019-01-24T00:16:54.622Z,-1.52
2019-01-24T00:17:30.105Z,-1.52
2019-01-24T00:18:06.494Z,-1.43
2019-01-24T00:18:41.932Z,-1.44
2019-01-24T00:19:17.924Z,-1.41
2019-01-24T00:19:53.641Z,-1.42
2019-01-24T00:20:29.390Z,-1.44
2019-01-24T00:21:05.444Z,-1.44
2019-01-24T00:21:41.346Z,-1.44
2019-01-24T00:22:17.101Z,-1.43
2019-01-24T00:22:53.368Z,-1.44
2019-01-24T00:23:29.158Z,-1.40
2019-01-24T00:24:05.010Z,-1.40
2019-01-24T00:24:40.807Z,-1.39
2019-01-24T00:25:16.344Z,-1.33
2019-01-24T00:25:51.786Z,-1.33
2019-01-24T00:26:27.489Z,-1.35
2019-01-24T00:27:03.039Z,-1.40
2019-01-24T00:27:38.502Z,-1.44
2019-01-24T00:28:14.265Z,-1.37
2019-01-24T00:28:50.014Z,-1.40
2019-01-24T00:29:25.742Z,-1.45
2019-01-24T00:30:01.780Z,-1.45
2019-01-24T00:30:37.264Z,-1.48
2019-01-24T00:31:13.299Z,-1.46
2019-01-24T00:31:49.040Z,-1.53
2019-01-24T00:32:24.770Z,-1.53
2019-01-24T00:33:00.391Z,-1.49
2019-01-24T00:33:36.793Z,-1.41
2019-01-24T00:34:12.272Z,-1.41
2019-01-24T00:34:48.021Z,-1.45
2019-01-24T00:35:23.446Z,-1.42
2019-01-24T00:35:59.202Z,-1.41
2019-01-24T00:36:35.036Z,-1.41
2019-01-24T00:37:11.077Z,-1.38
2019-01-24T00:37:46.950Z,-1.43
2019-01-24T00:38:22.660Z,-1.43
2019-01-24T00:38:58.119Z,-1.45
2019-01-24T00:39:33.910Z,-1.44
2019-01-24T00:40:11.567Z,-1.47
2019-01-24T00:40:47.102Z,-1.47
2019-01-24T00:41:22.584Z,-1.44
2019-01-24T00:41:58.376Z,-1.49
2019-01-24T00:42:34.209Z,-1.44
2019-01-24T00:43:09.803Z,-1.44
2019-01-24T00:43:45.960Z,-1.47
2019-01-24T00:44:21.646Z,-1.43
2019-01-24T00:44:57.374Z,-1.43
2019-01-24T00:45:33.495Z,-1.44
2019-01-24T00:46:09.408Z,-1.46
2019-01-24T00:46:45.433Z,-1.44
2019-01-24T00:47:21.440Z,-1.44
2019-01-24T00:47:57.459Z,-1.41
2019-01-24T00:48:33.763Z,-1.41
2019-01-24T00:49:09.270Z,-1.41
2019-01-24T00:49:44.820Z,-1.40
2019-01-24T00:50:20.541Z,-1.41
2019-01-24T00:50:56.252Z,-1.35
2019-01-24T00:51:32.145Z,-1.27
2019-01-24T00:52:07.640Z,-1.27
2019-01-24T00:52:43.492Z,-1.34
2019-01-24T00:53:19.503Z,-1.37
2019-01-24T00:53:55.261Z,-1.37
2019-01-24T00:54:31.015Z,-1.36
2019-01-24T00:55:08.800Z,-1.36
2019-01-24T00:55:44.282Z,-1.35
2019-01-24T00:56:19.708Z,-1.36
2019-01-24T00:56:55.159Z,-1.36
2019-01-24T00:57:30.881Z,-1.35
2019-01-24T00:58:06.773Z,-1.34
2019-01-24T00:58:42.527Z,-1.28
2019-01-24T00:59:17.993Z,-1.30
2019-01-24T00:59:53.732Z,-1.37
2019-01-24T01:00:29.358Z,-1.37
2019-01-24T01:01:05.286Z,-1.39
2019-01-24T01:01:40.741Z,-1.38
2019-01-24T01:02:16.186Z,-1.31
2019-01-24T01:02:52.052Z,-1.38
2019-01-24T01:03:27.495Z,-1.40
2019-01-24T01:04:03.079Z,-1.38
2019-01-24T01:04:38.840Z,-1.34
2019-01-24T01:05:14.564Z,-1.34
2019-01-24T01:05:50.752Z,-1.33
2019-01-24T01:06:26.450Z,-1.37
2019-01-24T01:07:02.359Z,-1.36
2019-01-24T01:07:37.920Z,-1.35
2019-01-24T01:08:13.636Z,-1.39
2019-01-24T01:08:49.377Z,-1.42
2019-01-24T01:09:24.826Z,-1.32
2019-01-24T01:10:00.256Z,-1.35
2019-01-24T01:10:35.774Z,-1.35
2019-01-24T01:11:11.548Z,-1.41
2019-01-24T01:11:47.004Z,-1.40
2019-01-24T01:12:22.706Z,-1.44
2019-01-24T01:12:58.753Z,-1.34
2019-01-24T01:13:34.593Z,-1.38
2019-01-24T01:14:10.356Z,-1.38
2019-01-24T01:14:45.787Z,-1.44
2019-01-24T01:15:21.227Z,-1.48
2019-01-24T01:15:56.657Z,-1.44
2019-01-24T01:16:32.096Z,-1.44
2019-01-24T01:17:07.602Z,-1.47
2019-01-24T01:17:43.041Z,-1.47
2019-01-24T01:18:19.049Z,-1.48
2019-01-24T01:18:54.512Z,-1.50
2019-01-24T01:19:30.198Z,-1.49
2019-01-24T01:20:07.510Z,-1.61
2019-01-24T01:20:42.987Z,-1.61
2019-01-24T01:21:18.763Z,-1.54
2019-01-24T01:21:54.214Z,-1.46
2019-01-24T01:22:29.940Z,-1.38
2019-01-24T01:23:05.797Z,-1.41
2019-01-24T01:23:41.334Z,-1.41
2019-01-24T01:24:16.791Z,-1.49
2019-01-24T01:24:52.515Z,-1.49
2019-01-24T01:25:28.254Z,-1.49
2019-01-24T01:26:03.741Z,-1.44
2019-01-24T01:26:39.331Z,-1.45
2019-01-24T01:27:15.292Z,-1.44
2019-01-24T01:27:50.807Z,-1.46
2019-01-24T01:28:26.244Z,-1.45
2019-01-24T01:29:01.740Z,-1.46
2019-01-24T01:29:37.337Z,-1.44
2019-01-24T01:30:18.079Z,-1.46
2019-01-24T01:30:53.538Z,-1.48
2019-01-24T01:31:29.274Z,-1.51
2019-01-24T01:32:05.374Z,-1.46
2019-01-24T01:32:40.855Z,-1.49
2019-01-24T01:33:16.340Z,-1.75
2019-01-24T01:33:51.823Z,-1.53
2019-01-24T01:34:27.351Z,-1.54
2019-01-24T01:35:03.088Z,-1.50
2019-01-24T01:35:38.595Z,-1.50
2019-01-24T01:36:14.084Z,-1.53
2019-01-24T01:36:49.848Z,-1.55
2019-01-24T01:37:25.678Z,-1.59
2019-01-24T01:38:01.275Z,-1.61
2019-01-24T01:38:36.754Z,-1.57
2019-01-24T01:39:12.327Z,-1.49
2019-01-24T01:39:48.023Z,-1.51
2019-01-24T01:40:23.452Z,-1.53
2019-01-24T01:40:59.444Z,-1.56
2019-01-24T01:41:35.515Z,-1.56
2019-01-24T01:42:11.419Z,-1.54
2019-01-24T01:42:47.244Z,-1.54
2019-01-24T01:43:23.524Z,-1.52
2019-01-24T01:43:59.009Z,-1.52
2019-01-24T01:44:34.814Z,-1.57
2019-01-24T01:45:13.541Z,-1.45
2019-01-24T01:45:49.374Z,-1.42
2019-01-24T01:46:24.827Z,-1.42
2019-01-24T01:47:00.357Z,-1.49
2019-01-24T01:47:36.266Z,-1.50
2019-01-24T01:48:12.056Z,-1.52
2019-01-24T01:48:47.510Z,-1.52
2019-01-24T01:49:22.970Z,-1.56
2019-01-24T01:49:58.705Z,-1.51
2019-01-24T01:50:35.164Z,-1.51
2019-01-24T01:51:10.759Z,-1.55
2019-01-24T01:51:46.459Z,-1.55
2019-01-24T01:52:22.469Z,-1.63
2019-01-24T01:52:59.033Z,-1.66
2019-01-24T01:53:35.059Z,-1.63
2019-01-24T01:54:10.872Z,-1.69
2019-01-24T01:54:46.884Z,-1.69
2019-01-24T01:55:22.415Z,-1.56
2019-01-24T01:55:58.408Z,-1.60
2019-01-24T01:56:34.428Z,-1.60
2019-01-24T01:57:10.507Z,-1.64
2019-01-24T01:57:46.368Z,-1.64
2019-01-24T01:58:22.118Z,-1.49
2019-01-24T01:58:57.807Z,-1.54
2019-01-24T01:59:33.404Z,-1.59
2019-01-24T02:00:11.755Z,-1.58
2019-01-24T02:00:47.499Z,-1.57
2019-01-24T02:01:23.205Z,-1.57
2019-01-24T02:01:59.219Z,-1.56
2019-01-24T02:02:35.171Z,-1.49
2019-01-24T02:03:10.984Z,-1.57
2019-01-24T02:03:46.732Z,-1.57
2019-01-24T02:04:22.194Z,-1.54
2019-01-24T02:04:58.151Z,-1.56
2019-01-24T02:05:34.220Z,-1.56
2019-01-24T02:06:10.255Z,-1.64
2019-01-24T02:06:46.021Z,-1.64
2019-01-24T02:07:21.848Z,-1.51
2019-01-24T02:07:57.849Z,-1.55
2019-01-24T02:08:34.056Z,-1.57
2019-01-24T02:09:10.618Z,-1.59
2019-01-24T02:09:46.628Z,-1.64
2019-01-24T02:10:24.190Z,-1.63
2019-01-24T02:11:00.186Z,-1.63
2019-01-24T02:11:36.020Z,-1.64
2019-01-24T02:12:11.795Z,-1.62
2019-01-24T02:12:47.638Z,-1.53
2019-01-24T02:13:23.622Z,-1.57
2019-01-24T02:13:59.478Z,-1.59
2019-01-24T02:14:35.398Z,-1.59
2019-01-24T02:15:11.645Z,-1.63
2019-01-24T02:15:47.391Z,-1.65
2019-01-24T02:16:22.824Z,-1.65
2019-01-24T02:16:58.568Z,-1.59
2019-01-24T02:17:34.371Z,-1.61
2019-01-24T02:18:10.051Z,-1.65
2019-01-24T02:18:45.592Z,-1.59
2019-01-24T02:19:21.333Z,-1.46
2019-01-24T02:19:56.872Z,-1.46
2019-01-24T02:20:33.321Z,-1.52
2019-01-24T02:21:08.766Z,-1.55
2019-01-24T02:21:44.214Z,-1.56
2019-01-24T02:22:19.638Z,-1.58
2019-01-24T02:22:55.347Z,-1.57
2019-01-24T02:23:31.347Z,-1.61
2019-01-24T02:24:07.319Z,-1.64
2019-01-24T02:24:43.070Z,-1.68
2019-01-24T02:25:18.904Z,-1.64
2019-01-24T02:25:54.637Z,-1.61
2019-01-24T02:26:30.390Z,-1.61
2019-01-24T02:27:06.874Z,-1.61
2019-01-24T02:27:42.627Z,-1.61
2019-01-24T02:28:18.644Z,-1.58
2019-01-24T02:28:54.421Z,-1.65
2019-01-24T02:29:30.147Z,-1.65
2019-01-24T02:30:08.190Z,-1.56
2019-01-24T02:30:43.984Z,-1.56
2019-01-24T02:31:19.439Z,-1.62
2019-01-24T02:31:55.211Z,-1.70
2019-01-24T02:32:30.687Z,-1.70
2019-01-24T02:33:06.634Z,-1.70
2019-01-24T02:33:42.094Z,-1.70
2019-01-24T02:34:17.599Z,-1.67
2019-01-24T02:34:53.063Z,-1.65
2019-01-24T02:35:28.526Z,-1.67
2019-01-24T02:36:04.083Z,-1.73
2019-01-24T02:36:39.850Z,-1.70
2019-01-24T02:37:15.602Z,-1.73
2019-01-24T02:37:51.070Z,-1.73
2019-01-24T02:38:26.801Z,-1.70
2019-01-24T02:39:02.265Z,-1.70
2019-01-24T02:39:37.846Z,-1.50
2019-01-24T02:40:13.473Z,-1.41
2019-01-24T02:40:49.203Z,-1.45
2019-01-24T02:41:24.636Z,-1.45
2019-01-24T02:42:00.487Z,-1.57
2019-01-24T02:42:36.314Z,-1.60
2019-01-24T02:43:12.065Z,-1.60
2019-01-24T02:43:47.527Z,-1.62
2019-01-24T02:44:23.380Z,-1.69
2019-01-24T02:44:59.370Z,-1.64
2019-01-24T02:45:34.898Z,-1.64
2019-01-24T02:46:10.379Z,-1.55
2019-01-24T02:46:46.384Z,-1.70
2019-01-24T02:47:21.858Z,-1.70
2019-01-24T02:47:57.620Z,-1.77
2019-01-24T02:48:33.395Z,-1.77
2019-01-24T02:49:09.033Z,-1.74
2019-01-24T02:49:44.558Z,-1.74
2019-01-24T02:50:20.695Z,-1.79
2019-01-24T02:50:56.186Z,-1.82
2019-01-24T02:51:31.721Z,-1.77
2019-01-24T02:52:07.530Z,-1.82
2019-01-24T02:52:43.376Z,-1.78
2019-01-24T02:53:19.134Z,-1.78
2019-01-24T02:53:55.181Z,-1.75
2019-01-24T02:54:31.229Z,-1.81
2019-01-24T02:55:08.597Z,-1.79
2019-01-24T02:55:44.099Z,-1.79
2019-01-24T02:56:19.830Z,-1.78
2019-01-24T02:56:55.385Z,-1.79
2019-01-24T02:57:31.011Z,-1.82
2019-01-24T02:58:06.917Z,-1.80
2019-01-24T02:58:42.676Z,-1.79
2019-01-24T02:59:18.389Z,-1.80
2019-01-24T02:59:54.188Z,-1.81
2019-01-24T03:00:29.684Z,-1.83
2019-01-24T03:01:05.328Z,-1.88
2019-01-24T03:01:41.350Z,-1.80
2019-01-24T03:02:16.848Z,-1.80
2019-01-24T03:02:52.796Z,-1.89
2019-01-24T03:03:28.295Z,-1.94
2019-01-24T03:04:03.854Z,-1.94
2019-01-24T03:04:39.603Z,-1.93
2019-01-24T03:05:16.768Z,-1.91
2019-01-24T03:05:52.767Z,-1.94
2019-01-24T03:06:28.861Z,-1.94
2019-01-24T03:07:04.314Z,-1.99
2019-01-24T03:07:40.080Z,-1.97
2019-01-24T03:08:15.557Z,-2.02
2019-01-24T03:08:51.045Z,-2.02
2019-01-24T03:09:26.528Z,-2.05
2019-01-24T03:10:02.025Z,-2.13
2019-01-24T03:10:37.771Z,-2.11
2019-01-24T03:11:13.495Z,-2.12
2019-01-24T03:11:49.234Z,-2.13
2019-01-24T03:12:25.004Z,-2.15
2019-01-24T03:13:00.742Z,-2.07
2019-01-24T03:13:36.503Z,-2.05
2019-01-24T03:14:11.932Z,-2.05
2019-01-24T03:14:47.739Z,-2.13
2019-01-24T03:15:23.398Z,-2.13
2019-01-24T03:15:59.211Z,-2.19
2019-01-24T03:16:34.954Z,-2.19
2019-01-24T03:17:10.665Z,-2.11
2019-01-24T03:17:46.674Z,-2.15
2019-01-24T03:18:22.451Z,-2.15
2019-01-24T03:18:58.207Z,-2.12
2019-01-24T03:19:33.640Z,-2.12
2019-01-24T03:20:10.070Z,-1.89
2019-01-24T03:20:45.830Z,-1.84
2019-01-24T03:21:21.692Z,-1.88
2019-01-24T03:21:57.176Z,-1.88
2019-01-24T03:22:32.912Z,-1.92
2019-01-24T03:23:08.645Z,-1.95
2019-01-24T03:23:44.492Z,-1.95
2019-01-24T03:24:20.198Z,-1.95
2019-01-24T03:24:55.848Z,-1.97
2019-01-24T03:25:31.523Z,-1.94
2019-01-24T03:26:07.264Z,-1.95
2019-01-24T03:26:42.817Z,-1.95
2019-01-24T03:27:18.814Z,-1.96
2019-01-24T03:27:54.587Z,-1.80
2019-01-24T03:28:30.414Z,-1.84
2019-01-24T03:29:06.457Z,-1.91
2019-01-24T03:29:41.923Z,-1.91
2019-01-24T03:30:19.811Z,-1.84
2019-01-24T03:30:55.701Z,-1.85
2019-01-24T03:31:31.480Z,-1.85
2019-01-24T03:32:06.911Z,-1.78
2019-01-24T03:32:42.655Z,-1.99
2019-01-24T03:33:18.400Z,-1.77
2019-01-24T03:33:54.189Z,-1.77
2019-01-24T03:34:29.662Z,-1.81
2019-01-24T03:35:07.516Z,-1.82
2019-01-24T03:35:43.204Z,-1.82
2019-01-24T03:36:18.656Z,-1.77
2019-01-24T03:36:54.453Z,-1.77
2019-01-24T03:37:30.327Z,-1.79
2019-01-24T03:38:06.072Z,-1.86
2019-01-24T03:38:41.808Z,-1.87
2019-01-24T03:39:17.259Z,-1.83
2019-01-24T03:39:52.791Z,-1.85
2019-01-24T03:40:28.301Z,-1.88
2019-01-24T03:41:03.987Z,-1.91
2019-01-24T03:41:39.991Z,-1.89
2019-01-24T03:42:15.722Z,-1.98
2019-01-24T03:42:51.201Z,-1.98
2019-01-24T03:43:26.726Z,-1.96
2019-01-24T03:44:02.457Z,-1.83
2019-01-24T03:44:38.180Z,-1.87
2019-01-24T03:45:14.751Z,-1.87
2019-01-24T03:45:50.291Z,-1.78
2019-01-24T03:46:26.010Z,-1.77
2019-01-24T03:47:01.744Z,-1.80
2019-01-24T03:47:37.879Z,-1.80
2019-01-24T03:48:13.613Z,-1.75
2019-01-24T03:48:49.368Z,-1.81
2019-01-24T03:49:24.883Z,-1.77
2019-01-24T03:50:00.627Z,-1.81
2019-01-24T03:50:36.106Z,-1.82
2019-01-24T03:51:11.801Z,-1.84
2019-01-24T03:51:47.253Z,-1.87
2019-01-24T03:52:23.404Z,-1.89
2019-01-24T03:52:58.868Z,-1.86
2019-01-24T03:53:34.895Z,-1.85
2019-01-24T03:54:10.352Z,-1.94
2019-01-24T03:54:45.782Z,-1.90
2019-01-24T03:55:22.657Z,-1.88
2019-01-24T03:55:58.964Z,-1.88
2019-01-24T03:56:34.718Z,-1.88
2019-01-24T03:57:10.167Z,-1.91
2019-01-24T03:57:45.586Z,-1.92
2019-01-24T03:58:21.435Z,-1.97
2019-01-24T03:58:57.606Z,-2.03
2019-01-24T03:59:33.354Z,-1.95
2019-01-24T04:00:12.596Z,-1.88
2019-01-24T04:00:48.358Z,-1.89
2019-01-24T04:01:24.155Z,-1.93
2019-01-24T04:02:00.308Z,-1.95
2019-01-24T04:02:36.140Z,-1.99
2019-01-24T04:03:11.884Z,-1.98
2019-01-24T04:03:47.902Z,-2.03
2019-01-24T04:04:23.770Z,-2.01
2019-01-24T04:04:59.623Z,-2.00
2019-01-24T04:05:35.427Z,-1.99
2019-01-24T04:06:11.153Z,-1.91
2019-01-24T04:06:46.897Z,-1.91
2019-01-24T04:07:22.654Z,-1.97
2019-01-24T04:07:58.951Z,-1.97
2019-01-24T04:08:34.807Z,-1.95
2019-01-24T04:09:10.255Z,-1.96
2019-01-24T04:09:46.273Z,-1.96
2019-01-24T04:10:23.034Z,-2.01
2019-01-24T04:10:58.786Z,-2.04
2019-01-24T04:11:34.698Z,-2.04
2019-01-24T04:12:10.447Z,-2.01
2019-01-24T04:12:46.283Z,-1.99
2019-01-24T04:13:22.541Z,-2.01
2019-01-24T04:13:58.660Z,-2.01
2019-01-24T04:14:34.359Z,-1.86
2019-01-24T04:15:12.397Z,-1.91
2019-01-24T04:15:48.140Z,-1.88
2019-01-24T04:16:23.903Z,-1.91
2019-01-24T04:16:59.961Z,-1.95
2019-01-24T04:17:35.950Z,-1.97
2019-01-24T04:18:11.698Z,-1.82
2019-01-24T04:18:47.424Z,-1.90
2019-01-24T04:19:23.221Z,-1.97
2019-01-24T04:19:58.954Z,-2.00
2019-01-24T04:20:34.727Z,-2.04
2019-01-24T04:21:10.192Z,-1.97
2019-01-24T04:21:45.619Z,-1.97
2019-01-24T04:22:21.344Z,-1.90
2019-01-24T04:22:57.418Z,-1.88
2019-01-24T04:23:33.410Z,-1.81
2019-01-24T04:24:08.870Z,-1.92
2019-01-24T04:24:44.325Z,-1.91
2019-01-24T04:25:19.833Z,-1.91
2019-01-24T04:25:55.997Z,-1.94
2019-01-24T04:26:31.421Z,-1.91
2019-01-24T04:27:06.884Z,-1.91
2019-01-24T04:27:42.611Z,-1.94
2019-01-24T04:28:18.387Z,-2.03
2019-01-24T04:28:54.174Z,-2.03
2019-01-24T04:29:29.930Z,-1.97
2019-01-24T04:30:07.667Z,-1.99
2019-01-24T04:30:43.420Z,-1.99
2019-01-24T04:31:19.202Z,-1.93
2019-01-24T04:31:54.991Z,-1.98
2019-01-24T04:32:30.408Z,-1.96
2019-01-24T04:33:05.864Z,-1.98
2019-01-24T04:33:41.703Z,-1.92
2019-01-24T04:34:18.038Z,-1.98
2019-01-24T04:34:53.840Z,-2.06
2019-01-24T04:35:30.264Z,-2.11
2019-01-24T04:36:06.029Z,-2.08
2019-01-24T04:36:41.846Z,-2.09
2019-01-24T04:37:17.292Z,-2.11
2019-01-24T04:37:53.174Z,-2.11
2019-01-24T04:38:29.264Z,-2.08
2019-01-24T04:39:07.563Z,-2.05
2019-01-24T04:39:43.295Z,-2.20
2019-01-24T04:40:19.682Z,-2.18
2019-01-24T04:40:55.449Z,-2.16
2019-01-24T04:41:31.314Z,-2.18
2019-01-24T04:42:07.052Z,-2.11
2019-01-24T04:42:42.898Z,-2.10
2019-01-24T04:43:18.725Z,-2.09
2019-01-24T04:43:54.478Z,-2.07
2019-01-24T04:44:30.495Z,-2.09
2019-01-24T04:45:06.823Z,-2.09
2019-01-24T04:45:42.285Z,-2.12
2019-01-24T04:46:18.277Z,-2.11
2019-01-24T04:46:54.116Z,-2.07
2019-01-24T04:47:29.927Z,-2.14
2019-01-24T04:48:05.675Z,-2.08
2019-01-24T04:48:41.502Z,-2.08
2019-01-24T04:49:17.241Z,-1.98
2019-01-24T04:49:53.137Z,-2.05
2019-01-24T04:50:28.966Z,-2.08
2019-01-24T04:51:04.705Z,-2.08
2019-01-24T04:51:40.566Z,-2.07
2019-01-24T04:52:16.576Z,-2.09
2019-01-24T04:52:52.327Z,-1.97
2019-01-24T04:53:28.123Z,-1.97
2019-01-24T04:54:04.156Z,-2.01
2019-01-24T04:54:39.884Z,-2.07
2019-01-24T04:55:17.375Z,-1.97
2019-01-24T04:55:53.212Z,-1.99
2019-01-24T04:56:28.958Z,-1.99
2019-01-24T04:57:04.702Z,-2.04
2019-01-24T04:57:40.454Z,-2.04
2019-01-24T04:58:16.451Z,-2.09
2019-01-24T04:58:52.254Z,-2.05
2019-01-24T04:59:28.312Z,-2.08
2019-01-24T05:00:05.925Z,-2.00
2019-01-24T05:00:41.671Z,-2.00
2019-01-24T05:01:17.670Z,-2.08
2019-01-24T05:01:53.645Z,-2.08
2019-01-24T05:02:29.690Z,-2.08
2019-01-24T05:03:05.420Z,-1.99
2019-01-24T05:03:41.138Z,-2.02
2019-01-24T05:04:16.941Z,-2.11
2019-01-24T05:04:52.980Z,-2.11
2019-01-24T05:05:28.814Z,-2.16
2019-01-24T05:06:04.601Z,-2.12
2019-01-24T05:06:40.350Z,-2.08
2019-01-24T05:07:16.079Z,-2.08
2019-01-24T05:07:53.325Z,-2.09
2019-01-24T05:08:29.098Z,-2.18
2019-01-24T05:09:07.503Z,-2.28
2019-01-24T05:09:43.241Z,-2.28
2019-01-24T05:10:18.722Z,-2.25
2019-01-24T05:10:54.529Z,-2.22
2019-01-24T05:11:30.605Z,-2.26
2019-01-24T05:12:06.649Z,-2.26
2019-01-24T05:12:42.465Z,-2.31
2019-01-24T05:13:18.251Z,-2.24
2019-01-24T05:13:54.060Z,-2.24
2019-01-24T05:14:29.813Z,-2.26
2019-01-24T05:15:06.068Z,-2.33
2019-01-24T05:15:41.816Z,-2.36
2019-01-24T05:16:18.124Z,-2.36
2019-01-24T05:16:53.940Z,-2.35
2019-01-24T05:17:29.718Z,-2.39
2019-01-24T05:18:05.744Z,-2.40
2019-01-24T05:18:41.486Z,-2.36
2019-01-24T05:19:17.501Z,-2.32
2019-01-24T05:19:53.287Z,-2.39
2019-01-24T05:20:29.341Z,-2.40
2019-01-24T05:21:05.456Z,-2.41
2019-01-24T05:21:41.297Z,-2.41
2019-01-24T05:22:17.130Z,-2.38
2019-01-24T05:22:52.981Z,-2.38
2019-01-24T05:23:28.901Z,-2.40
2019-01-24T05:24:04.631Z,-2.45
2019-01-24T05:24:40.405Z,-2.38
2019-01-24T05:25:17.196Z,-2.39
2019-01-24T05:25:53.079Z,-2.42
2019-01-24T05:26:28.820Z,-2.30
2019-01-24T05:27:04.574Z,-2.30
2019-01-24T05:27:40.631Z,-2.38
2019-01-24T05:28:16.508Z,-2.30
2019-01-24T05:28:52.934Z,-2.28
2019-01-24T05:29:28.763Z,-2.28
2019-01-24T05:30:05.832Z,-2.35
2019-01-24T05:30:41.881Z,-2.43
2019-01-24T05:31:17.766Z,-2.44
2019-01-24T05:31:53.560Z,-2.40
2019-01-24T05:32:29.342Z,-2.43
2019-01-24T05:33:05.176Z,-2.54
2019-01-24T05:33:40.913Z,-2.30
2019-01-24T05:34:16.651Z,-2.30
2019-01-24T05:34:52.649Z,-2.35
2019-01-24T05:35:34.633Z,-2.41
2019-01-24T05:36:06.525Z,-2.47
2019-01-24T05:36:42.525Z,-2.53
2019-01-24T05:37:18.682Z,-2.51
2019-01-24T05:37:54.480Z,-2.50
2019-01-24T05:38:30.295Z,-2.53
2019-01-24T05:39:08.396Z,-2.55
2019-01-24T05:39:44.145Z,-2.57
2019-01-24T05:40:21.909Z,-2.59
2019-01-24T05:40:57.816Z,-2.53
2019-01-24T05:41:33.551Z,-2.58
2019-01-24T05:42:09.535Z,-2.58
2019-01-24T05:42:45.578Z,-2.59
2019-01-24T05:43:21.487Z,-2.59
2019-01-24T05:43:57.688Z,-2.58
2019-01-24T05:44:33.686Z,-2.58
2019-01-24T05:45:10.080Z,-2.62
2019-01-24T05:45:46.148Z,-2.59
2019-01-24T05:46:22.471Z,-2.56
2019-01-24T05:46:58.237Z,-2.49
2019-01-24T05:47:34.222Z,-2.45
2019-01-24T05:48:10.002Z,-2.40
2019-01-24T05:48:45.779Z,-2.43
2019-01-24T05:49:21.369Z,-2.48
2019-01-24T05:49:57.259Z,-2.50
2019-01-24T05:50:33.014Z,-2.47
2019-01-24T05:51:09.057Z,-2.46
2019-01-24T05:51:44.900Z,-2.46
2019-01-24T05:52:20.677Z,-2.49
2019-01-24T05:52:56.819Z,-2.53
2019-01-24T05:53:32.913Z,-2.56
2019-01-24T05:54:08.671Z,-2.50
2019-01-24T05:54:44.676Z,-2.52
2019-01-24T05:55:20.484Z,-2.58
2019-01-24T05:55:56.625Z,-2.60
2019-01-24T05:56:32.383Z,-2.55
2019-01-24T05:57:08.153Z,-2.44
2019-01-24T05:57:44.148Z,-2.44
2019-01-24T05:58:19.926Z,-2.55
2019-01-24T05:58:56.065Z,-2.58
2019-01-24T05:59:31.923Z,-2.56
2019-01-24T06:00:09.755Z,-2.57
2019-01-24T06:00:45.958Z,-2.59
2019-01-24T06:01:21.883Z,-2.60
2019-01-24T06:01:57.861Z,-2.60
2019-01-24T06:02:33.694Z,-2.65
2019-01-24T06:03:09.406Z,-2.73
2019-01-24T06:03:46.118Z,-2.72
2019-01-24T06:04:21.983Z,-2.62
2019-01-24T06:04:57.801Z,-2.78
2019-01-24T06:05:33.531Z,-2.78
2019-01-24T06:06:09.367Z,-2.76
2019-01-24T06:06:45.409Z,-2.63
2019-01-24T06:07:21.241Z,-2.71
2019-01-24T06:07:57.052Z,-2.67
2019-01-24T06:08:33.081Z,-2.61
2019-01-24T06:09:09.300Z,-2.59
2019-01-24T06:09:45.033Z,-2.62
2019-01-24T06:10:20.923Z,-2.61
2019-01-24T06:10:57.035Z,-2.64
2019-01-24T06:11:32.813Z,-2.63
2019-01-24T06:12:09.140Z,-2.66
2019-01-24T06:12:44.883Z,-2.65
2019-01-24T06:13:20.682Z,-2.71
2019-01-24T06:13:56.582Z,-2.67
2019-01-24T06:14:32.323Z,-2.71
2019-01-24T06:15:10.444Z,-2.69
2019-01-24T06:15:46.470Z,-2.72
2019-01-24T06:16:24.074Z,-2.63
2019-01-24T06:16:59.948Z,-2.67
2019-01-24T06:17:35.940Z,-2.75
2019-01-24T06:18:11.924Z,-2.63
2019-01-24T06:18:48.002Z,-2.70
2019-01-24T06:19:23.759Z,-2.72
2019-01-24T06:19:59.902Z,-2.79
2019-01-24T06:20:35.983Z,-2.81
2019-01-24T06:21:11.709Z,-2.74
2019-01-24T06:21:47.484Z,-2.80
2019-01-24T06:22:23.353Z,-2.77
2019-01-24T06:22:59.155Z,-2.74
2019-01-24T06:23:34.924Z,-2.75
2019-01-24T06:24:10.635Z,-2.81
2019-01-24T06:24:46.371Z,-2.83
2019-01-24T06:25:22.427Z,-2.82
2019-01-24T06:25:58.536Z,-2.78
2019-01-24T06:26:34.314Z,-2.78
2019-01-24T06:27:10.044Z,-2.71
2019-01-24T06:27:45.799Z,-2.76
2019-01-24T06:28:21.949Z,-2.71
2019-01-24T06:28:58.450Z,-2.67
2019-01-24T06:29:34.226Z,-2.66
2019-01-24T06:30:16.614Z,-2.57
2019-01-24T06:30:52.421Z,-2.72
2019-01-24T06:31:28.325Z,-2.59
2019-01-24T06:32:04.118Z,-2.61
2019-01-24T06:32:39.877Z,-2.64
2019-01-24T06:33:15.659Z,-2.62
2019-01-24T06:33:51.765Z,-2.69
2019-01-24T06:34:27.607Z,-2.61
2019-01-24T06:35:03.476Z,-2.61
2019-01-24T06:35:39.486Z,-2.61
2019-01-24T06:36:15.233Z,-2.65
2019-01-24T06:36:51.095Z,-2.55
2019-01-24T06:37:26.953Z,-2.59
2019-01-24T06:38:02.687Z,-2.63
2019-01-24T06:38:38.717Z,-2.66
2019-01-24T06:39:14.545Z,-2.65
2019-01-24T06:39:50.320Z,-2.68
2019-01-24T06:40:26.468Z,-2.68
2019-01-24T06:41:02.233Z,-2.74
2019-01-24T06:41:38.417Z,-2.75
2019-01-24T06:42:14.461Z,-2.79
2019-01-24T06:42:50.496Z,-2.69
2019-01-24T06:43:26.323Z,-2.72
2019-01-24T06:44:02.352Z,-2.77
2019-01-24T06:44:38.087Z,-2.76
2019-01-24T06:45:16.168Z,-2.71
2019-01-24T06:45:52.227Z,-2.77
2019-01-24T06:46:28.156Z,-2.78
2019-01-24T06:47:04.057Z,-2.80
2019-01-24T06:47:39.801Z,-2.81
2019-01-24T06:48:15.549Z,-2.81
2019-01-24T06:48:51.572Z,-2.71
2019-01-24T06:49:27.397Z,-2.73
2019-01-24T06:50:05.194Z,-2.76
2019-01-24T06:50:40.958Z,-2.79
2019-01-24T06:51:16.704Z,-2.77
2019-01-24T06:51:52.795Z,-2.81
2019-01-24T06:52:28.566Z,-2.81
2019-01-24T06:53:04.383Z,-2.84
2019-01-24T06:53:40.444Z,-2.80
2019-01-24T06:54:16.194Z,-2.80
2019-01-24T06:54:52.292Z,-2.84
2019-01-24T06:55:29.455Z,-2.84
2019-01-24T06:56:05.221Z,-2.85
2019-01-24T06:56:41.250Z,-2.85
2019-01-24T06:57:16.978Z,-2.88
2019-01-24T06:57:52.787Z,-2.91
2019-01-24T06:58:28.583Z,-2.91
2019-01-24T06:59:04.320Z,-2.80
2019-01-24T06:59:40.051Z,-2.80
2019-01-24T07:00:17.179Z,-2.85
2019-01-24T07:00:53.000Z,-2.86
2019-01-24T07:01:28.788Z,-2.91
2019-01-24T07:02:04.846Z,-2.92
2019-01-24T07:02:40.630Z,-2.86
2019-01-24T07:03:16.963Z,-2.89
2019-01-24T07:03:52.762Z,-2.83
2019-01-24T07:04:28.575Z,-2.83
2019-01-24T07:05:04.463Z,-2.77
2019-01-24T07:05:40.216Z,-2.77
2019-01-24T07:06:16.251Z,-2.77
2019-01-24T07:06:52.092Z,-2.77
2019-01-24T07:07:28.263Z,-2.83
2019-01-24T07:08:04.070Z,-2.83
2019-01-24T07:08:40.093Z,-2.84
2019-01-24T07:09:15.872Z,-2.83
2019-01-24T07:09:51.622Z,-2.83
2019-01-24T07:10:27.679Z,-2.79
2019-01-24T07:11:04.006Z,-2.84
2019-01-24T07:11:40.058Z,-2.84
2019-01-24T07:12:16.062Z,-2.83
2019-01-24T07:12:51.826Z,-2.83
2019-01-24T07:13:27.651Z,-2.81
2019-01-24T07:14:03.413Z,-2.79
2019-01-24T07:14:39.154Z,-2.76
2019-01-24T07:15:16.831Z,-2.84
2019-01-24T07:15:52.652Z,-2.74
2019-01-24T07:16:28.551Z,-2.69
2019-01-24T07:17:04.331Z,-2.77
2019-01-24T07:17:40.312Z,-2.80
2019-01-24T07:18:16.072Z,-2.71
2019-01-24T07:18:51.879Z,-2.76
2019-01-24T07:19:29.040Z,-2.72
2019-01-24T07:20:05.906Z,-2.73
2019-01-24T07:20:41.929Z,-2.71
2019-01-24T07:21:17.969Z,-2.76
2019-01-24T07:21:54.136Z,-2.76
2019-01-24T07:22:29.945Z,-2.69
2019-01-24T07:23:05.709Z,-2.70
2019-01-24T07:23:41.718Z,-2.65
2019-01-24T07:24:17.478Z,-2.63
2019-01-24T07:24:53.284Z,-2.63
2019-01-24T07:25:29.493Z,-2.68
2019-01-24T07:26:05.236Z,-2.68
2019-01-24T07:26:41.260Z,-2.65
2019-01-24T07:27:17.056Z,-2.71
2019-01-24T07:27:52.879Z,-2.78
2019-01-24T07:28:28.664Z,-2.83
2019-01-24T07:29:04.432Z,-2.87
2019-01-24T07:29:40.174Z,-2.82
2019-01-24T07:30:16.479Z,-2.82
2019-01-24T07:30:52.407Z,-2.82
2019-01-24T07:31:28.211Z,-2.83
2019-01-24T07:32:04.266Z,-2.80
2019-01-24T07:32:40.265Z,-2.75
2019-01-24T07:33:16.294Z,-2.73
2019-01-24T07:33:52.097Z,-2.76
2019-01-24T07:34:27.968Z,-2.77
2019-01-24T07:35:04.169Z,-2.76
2019-01-24T07:35:39.922Z,-2.83
2019-01-24T07:36:15.661Z,-2.85
2019-01-24T07:36:51.451Z,-2.79
2019-01-24T07:37:27.253Z,-2.79
2019-01-24T07:38:03.300Z,-2.79
2019-01-24T07:38:39.090Z,-2.79
2019-01-24T07:39:14.825Z,-2.79
2019-01-24T07:39:50.546Z,-2.78
2019-01-24T07:40:26.390Z,-2.69
2019-01-24T07:41:02.286Z,-2.70
2019-01-24T07:41:38.029Z,-2.66
2019-01-24T07:42:13.793Z,-2.65